Rio, IL (61472)

4:13 AM CST on February 01, 2015 (GMT -0600)
East Burch St | Change Station
CLOSE
Current Station
Personal Weather Station
Location: Wataga, IL
Elevation: 840 ft
Nearby Weather Stations
Active Advisory: Winter Storm Warning

Elev 840 ft 41.03 °N, 90.28 °W | Updated 0 second ago

Snow
Snow
32.6 °F
Feels Like 33 °F
N
0.0
Wind Variable Wind from ESE
Gusts 1.0 mph

Today
High -- | Low -- °F
--% Chance of Precip.
Yesterday
High -- | Low -- °F
Precip. -- in
7:12 AM 5:18 PM
Waxing Gibbous, 94% visible
Pressure 29.89 in
Visibility 1.2 miles
Clouds Overcast 400 ft
Windchill 33 °F
Dew Point 32 °F
Humidity 97%
Rainfall 0.00 in
Snow Depth Not available.
UV 0 out of 12
Pollen .10 out of 12
Air Quality Not available.
Flu Activity Not available.
METAR KGBG 010955Z AUTO 11007KT 1 1/4SM -SN OVC004 00/00 A2989 RMK AO2 P0003 T00010001

More Conditions Fewer Conditions

Pressure 29.89 in
Visibility 1.2 miles
Clouds Overcast 400 ft
Windchill 33 °F
Dew Point 32 °F
Humidity 97%
Rainfall 0.00 in
Snow Depth Not available.
UV 0 out of 12
Pollen .10 out of 12
Air Quality Not available.
Flu Activity Not available.
METAR KGBG 010955Z AUTO 11007KT 1 1/4SM -SN OVC004 00/00 A2989 RMK AO2 P0003 T00010001

More Conditions Fewer Conditions

10-Day Weather Forecast

Almanac

Astronomy

Feb. 01, 2015 Rise Set
Actual Time
Civil Twilight
Nautical Twilight
Astronomical Twilight
Moon
Length of Visible Light
Length of Day
Tomorrow will be .
, % of the Moon is Illuminated

Today's Extremes

State Highs State Lows

Community

WunderPhotos

Upload Photos

1,792,330 photos uploaded!

WunderBlogs® & News

Nearby

Air Quality

  Air Quality AQ Index Pollutant
Not available.

Snow Depth

Station Depth Elevation

Earthquake Activity

City Distance Mag. Time & Date
Minimum magnitude displayed is 2.5.

Coastal Water Temperatures

Place Temperature

Nearby Weather Stations